createdAt,value
2022-12-19T00:00:46.448Z,99.99
2022-12-19T00:01:46.541Z,99.99
2022-12-19T00:02:46.582Z,99.99
2022-12-19T00:03:46.464Z,99.99
2022-12-19T00:04:46.428Z,99.99
2022-12-19T00:05:46.438Z,99.99
2022-12-19T00:06:46.386Z,99.99
2022-12-19T00:07:46.365Z,99.99
2022-12-19T00:08:46.356Z,99.99
2022-12-19T00:09:46.362Z,99.99
2022-12-19T00:10:46.324Z,99.99
2022-12-19T00:11:46.345Z,99.99
2022-12-19T00:12:46.307Z,99.99
2022-12-19T00:13:46.294Z,99.99
2022-12-19T00:14:46.298Z,99.99
2022-12-19T00:15:46.293Z,99.99
2022-12-19T00:16:46.306Z,99.99
2022-12-19T00:17:46.236Z,99.99
2022-12-19T00:18:46.229Z,99.99
2022-12-19T00:19:46.251Z,99.99
2022-12-19T00:20:46.216Z,99.99
2022-12-19T00:21:46.195Z,99.99
2022-12-19T00:22:46.194Z,99.99
2022-12-19T00:23:46.207Z,99.99
2022-12-19T00:24:46.187Z,99.99
2022-12-19T00:25:46.134Z,99.99
2022-12-19T00:26:46.126Z,99.99
2022-12-19T00:27:46.115Z,99.99
2022-12-19T00:28:46.104Z,99.99
2022-12-19T00:29:46.086Z,99.99
2022-12-19T00:30:46.091Z,99.99
2022-12-19T00:31:46.129Z,99.99
2022-12-19T00:32:46.049Z,99.99
2022-12-19T00:33:46.035Z,99.99
2022-12-19T00:34:46.014Z,99.99
2022-12-19T00:35:46.027Z,99.99
2022-12-19T00:36:45.987Z,99.99
2022-12-19T00:37:49.237Z,99.99
2022-12-19T00:38:45.966Z,99.99
2022-12-19T00:39:45.961Z,99.99
2022-12-19T00:40:46.141Z,99.99
2022-12-19T00:41:45.928Z,99.99
2022-12-19T00:42:51.641Z,99.99
2022-12-19T00:43:45.916Z,99.99
2022-12-19T00:44:45.900Z,99.99
2022-12-19T00:45:45.930Z,99.99
2022-12-19T00:46:51.054Z,99.99
2022-12-19T00:47:45.857Z,99.99
2022-12-19T00:48:45.850Z,99.99
2022-12-19T00:49:45.847Z,99.99
2022-12-19T00:50:45.838Z,99.99
2022-12-19T00:51:45.799Z,99.99
2022-12-19T00:52:45.796Z,99.99
2022-12-19T00:53:45.792Z,99.99
2022-12-19T00:54:45.837Z,99.99
2022-12-19T00:55:45.757Z,99.99
2022-12-19T00:56:45.771Z,99.99
2022-12-19T00:57:45.790Z,99.99
2022-12-19T00:58:47.427Z,99.99
2022-12-19T00:59:45.703Z,99.99
2022-12-19T01:00:45.716Z,99.99
2022-12-19T01:01:45.832Z,99.99
2022-12-19T01:02:45.811Z,99.99
2022-12-19T01:04:04.455Z,99.99
2022-12-19T01:04:45.644Z,99.99
2022-12-19T01:05:45.642Z,99.99
2022-12-19T01:06:45.723Z,99.99
2022-12-19T01:07:45.599Z,99.99
2022-12-19T01:08:45.602Z,99.99
2022-12-19T01:09:45.580Z,99.99
2022-12-19T01:10:45.566Z,99.99
2022-12-19T01:11:45.577Z,99.99
2022-12-19T01:12:45.550Z,99.99
2022-12-19T01:13:45.530Z,99.99
2022-12-19T01:14:45.520Z,99.99
2022-12-19T01:15:45.521Z,99.99
2022-12-19T01:16:45.533Z,99.99
2022-12-19T01:17:45.514Z,99.99
2022-12-19T01:18:45.459Z,99.99
2022-12-19T01:19:45.483Z,99.99
2022-12-19T01:20:45.455Z,99.99
2022-12-19T01:21:45.438Z,99.99
2022-12-19T01:22:45.433Z,99.99
2022-12-19T01:23:45.400Z,99.99
2022-12-19T01:24:45.385Z,99.99
2022-12-19T01:25:45.388Z,99.99
2022-12-19T01:26:45.361Z,99.99
2022-12-19T01:27:45.369Z,99.99
2022-12-19T01:28:45.341Z,99.99
2022-12-19T01:29:52.857Z,99.99
2022-12-19T01:30:45.312Z,99.99
2022-12-19T01:31:45.332Z,99.99
2022-12-19T01:32:45.335Z,99.99
2022-12-19T01:33:45.280Z,99.99
2022-12-19T01:34:45.258Z,99.99
2022-12-19T01:35:45.273Z,99.99
2022-12-19T01:36:45.241Z,99.99
2022-12-19T01:37:45.246Z,99.99
2022-12-19T01:38:45.210Z,99.99
2022-12-19T01:39:46.143Z,99.99
2022-12-19T01:40:45.191Z,99.99
2022-12-19T01:41:45.185Z,99.99
2022-12-19T01:42:45.183Z,99.99
2022-12-19T01:43:45.204Z,99.99
2022-12-19T01:44:45.138Z,99.99
2022-12-19T01:45:46.037Z,99.99
2022-12-19T01:46:45.194Z,99.99
2022-12-19T01:47:45.130Z,99.99
2022-12-19T01:48:45.084Z,99.99
2022-12-19T01:49:45.085Z,99.99
2022-12-19T01:50:45.976Z,99.99
2022-12-19T01:51:45.095Z,99.99
2022-12-19T01:52:45.043Z,99.99
2022-12-19T01:53:49.209Z,99.99
2022-12-19T01:54:45.014Z,99.99
2022-12-19T01:55:45.005Z,99.99
2022-12-19T01:56:44.965Z,99.99
2022-12-19T01:57:44.966Z,99.99
2022-12-19T01:58:44.930Z,99.99
2022-12-19T01:59:44.922Z,99.99
2022-12-19T02:00:44.931Z,99.99
2022-12-19T02:01:51.145Z,99.99
2022-12-19T02:02:45.149Z,99.99
2022-12-19T02:03:44.869Z,99.99
2022-12-19T02:04:44.847Z,99.99
2022-12-19T02:05:44.866Z,99.99
2022-12-19T02:06:44.885Z,99.99
2022-12-19T02:07:44.858Z,99.99
2022-12-19T02:08:44.826Z,99.99
2022-12-19T02:09:44.803Z,99.99
2022-12-19T02:10:44.773Z,99.99
2022-12-19T02:11:44.786Z,99.99
2022-12-19T02:12:44.753Z,99.99
2022-12-19T02:13:44.863Z,99.99
2022-12-19T02:14:44.728Z,99.99
2022-12-19T02:15:44.723Z,99.99
2022-12-19T02:16:44.725Z,99.99
2022-12-19T02:17:45.245Z,99.99
2022-12-19T02:18:44.698Z,99.99
2022-12-19T02:19:44.675Z,99.99
2022-12-19T02:20:44.673Z,99.99
2022-12-19T02:21:44.651Z,99.99
2022-12-19T02:22:44.652Z,99.99
2022-12-19T02:23:44.632Z,99.99
2022-12-19T02:24:44.606Z,99.99
2022-12-19T02:25:44.619Z,99.99
2022-12-19T02:26:44.577Z,99.99
2022-12-19T02:27:44.576Z,99.99
2022-12-19T02:28:44.591Z,99.99
2022-12-19T02:29:44.543Z,99.99
2022-12-19T02:30:44.531Z,99.99
2022-12-19T02:31:44.571Z,99.99
2022-12-19T02:32:44.515Z,99.99
2022-12-19T02:33:44.501Z,99.99
2022-12-19T02:34:44.817Z,99.99
2022-12-19T02:35:44.480Z,99.99
2022-12-19T02:36:45.440Z,99.99
2022-12-19T02:37:44.458Z,99.99
2022-12-19T02:38:44.446Z,99.99
2022-12-19T02:39:44.452Z,99.99
2022-12-19T02:40:44.412Z,99.99
2022-12-19T02:41:44.438Z,99.99
2022-12-19T02:42:44.386Z,99.99
2022-12-19T02:43:44.390Z,99.99
2022-12-19T02:44:44.386Z,99.99
2022-12-19T02:45:44.420Z,99.99
2022-12-19T02:46:44.337Z,99.99
2022-12-19T02:47:44.346Z,99.99
2022-12-19T02:48:44.317Z,99.99
2022-12-19T02:49:44.355Z,99.99
2022-12-19T02:50:44.283Z,99.99
2022-12-19T02:51:44.282Z,99.99
2022-12-19T02:52:44.264Z,99.99
2022-12-19T02:53:44.255Z,99.99
2022-12-19T02:54:45.173Z,99.99
2022-12-19T02:55:44.253Z,99.99
2022-12-19T02:56:44.265Z,99.99
2022-12-19T02:57:44.209Z,99.99
2022-12-19T02:58:44.221Z,99.99
2022-12-19T02:59:44.180Z,99.99
2022-12-19T03:00:44.189Z,99.99
2022-12-19T03:01:44.365Z,99.99
2022-12-19T03:02:47.079Z,99.99
2022-12-19T03:03:44.148Z,99.99
2022-12-19T03:04:44.159Z,99.99
2022-12-19T03:05:44.142Z,99.99
2022-12-19T03:06:44.154Z,99.99
2022-12-19T03:07:44.089Z,99.99
2022-12-19T03:08:44.120Z,99.99
2022-12-19T03:09:44.073Z,99.99
2022-12-19T03:10:44.081Z,99.99
2022-12-19T03:11:44.078Z,99.99
2022-12-19T03:12:44.017Z,99.99
2022-12-19T03:13:44.023Z,99.99
2022-12-19T03:14:43.990Z,99.99
2022-12-19T03:15:43.986Z,99.99
2022-12-19T03:16:44.046Z,99.99
2022-12-19T03:17:43.970Z,99.99
2022-12-19T03:18:43.946Z,99.99
2022-12-19T03:19:43.960Z,99.99
2022-12-19T03:20:43.933Z,99.99
2022-12-19T03:21:43.933Z,99.99
2022-12-19T03:22:43.942Z,99.99
2022-12-19T03:23:43.891Z,99.99
2022-12-19T03:24:43.879Z,99.99
2022-12-19T03:25:43.878Z,99.99
2022-12-19T03:26:43.857Z,99.99
2022-12-19T03:27:43.850Z,99.99
2022-12-19T03:28:43.821Z,99.99
2022-12-19T03:29:43.818Z,99.99
2022-12-19T03:30:43.845Z,99.99
2022-12-19T03:31:43.810Z,99.99
2022-12-19T03:32:43.794Z,99.99
2022-12-19T03:33:43.761Z,99.99
2022-12-19T03:34:43.743Z,99.99
2022-12-19T03:35:43.740Z,99.99
2022-12-19T03:36:43.740Z,99.99
2022-12-19T03:37:43.736Z,99.99
2022-12-19T03:38:43.731Z,99.99
2022-12-19T03:39:43.688Z,99.99
2022-12-19T03:40:43.680Z,99.99
2022-12-19T03:41:43.661Z,99.99
2022-12-19T03:42:43.680Z,99.99
2022-12-19T03:43:43.645Z,99.99
2022-12-19T03:44:43.615Z,99.99
2022-12-19T03:45:43.663Z,99.99
2022-12-19T03:46:43.623Z,99.99
2022-12-19T03:47:43.616Z,99.99
2022-12-19T03:48:43.583Z,99.99
2022-12-19T03:49:43.564Z,99.99
2022-12-19T03:50:43.555Z,99.99
2022-12-19T03:51:43.578Z,99.99
2022-12-19T03:52:43.550Z,99.99
2022-12-19T03:53:43.517Z,99.99
2022-12-19T03:54:43.505Z,99.99
2022-12-19T03:55:43.495Z,99.99
2022-12-19T03:56:43.482Z,99.99
2022-12-19T03:57:43.479Z,99.99
2022-12-19T03:58:43.468Z,99.99
2022-12-19T03:59:43.437Z,99.99
2022-12-19T04:00:43.418Z,99.99
2022-12-19T04:01:43.523Z,99.99
2022-12-19T04:02:43.440Z,99.99
2022-12-19T04:03:43.438Z,99.99
2022-12-19T04:04:43.371Z,99.99
2022-12-19T04:05:43.432Z,99.99
2022-12-19T04:06:43.351Z,99.99
2022-12-19T04:07:43.366Z,99.99
2022-12-19T04:08:43.312Z,99.99
2022-12-19T04:09:43.356Z,99.99
2022-12-19T04:10:43.317Z,99.99
2022-12-19T04:11:43.300Z,99.99
2022-12-19T04:12:43.312Z,99.99
2022-12-19T04:13:43.255Z,99.99
2022-12-19T04:14:43.235Z,99.99
2022-12-19T04:15:43.287Z,99.99
2022-12-19T04:16:43.219Z,99.99
2022-12-19T04:17:43.231Z,99.99
2022-12-19T04:18:43.221Z,99.99
2022-12-19T04:19:43.181Z,99.99
2022-12-19T04:20:43.166Z,99.99
2022-12-19T04:21:43.164Z,99.99
2022-12-19T04:22:43.134Z,99.99
2022-12-19T04:23:43.121Z,99.99
2022-12-19T04:24:43.131Z,99.99
2022-12-19T04:25:43.106Z,99.99
2022-12-19T04:26:43.078Z,99.99
2022-12-19T04:27:43.077Z,99.99
2022-12-19T04:28:43.072Z,99.99
2022-12-19T04:29:43.078Z,99.99
2022-12-19T04:30:43.102Z,99.99
2022-12-19T04:31:43.018Z,99.99
2022-12-19T04:32:43.008Z,99.99
2022-12-19T04:33:42.995Z,99.99
2022-12-19T04:34:43.284Z,99.99
2022-12-19T04:35:42.969Z,99.99
2022-12-19T04:36:42.952Z,99.99
2022-12-19T04:37:42.943Z,99.99
2022-12-19T04:38:42.923Z,99.99
2022-12-19T04:39:42.936Z,99.99
2022-12-19T04:40:42.914Z,99.99
2022-12-19T04:41:42.896Z,99.99
2022-12-19T04:42:42.898Z,99.99
2022-12-19T04:43:42.892Z,99.99
2022-12-19T04:44:42.853Z,99.99
2022-12-19T04:45:42.839Z,99.99
2022-12-19T04:46:42.873Z,99.99
2022-12-19T04:47:42.848Z,99.99
2022-12-19T04:48:42.794Z,99.99
2022-12-19T04:49:42.830Z,99.99
2022-12-19T04:50:42.772Z,99.99
2022-12-19T04:51:42.754Z,99.99
2022-12-19T04:52:42.752Z,99.99
2022-12-19T04:53:42.735Z,99.99
2022-12-19T04:54:42.742Z,99.99
2022-12-19T04:55:42.697Z,99.99
2022-12-19T04:56:42.694Z,99.99
2022-12-19T04:57:42.678Z,99.99
2022-12-19T04:58:42.674Z,99.99
2022-12-19T04:59:42.689Z,99.99
2022-12-19T05:00:42.651Z,99.99
2022-12-19T05:01:42.716Z,99.99
2022-12-19T05:02:42.874Z,99.99
2022-12-19T05:03:42.659Z,99.99
2022-12-19T05:04:42.619Z,99.99
2022-12-19T05:05:42.583Z,99.99
2022-12-19T05:06:42.564Z,99.99
2022-12-19T05:07:42.578Z,99.99
2022-12-19T05:08:42.543Z,99.99
2022-12-19T05:09:42.521Z,99.99
2022-12-19T05:10:42.548Z,99.99
2022-12-19T05:11:42.503Z,99.99
2022-12-19T05:12:42.490Z,99.99
2022-12-19T05:13:42.501Z,99.99
2022-12-19T05:14:42.459Z,99.99
2022-12-19T05:15:42.503Z,99.99
2022-12-19T05:16:42.435Z,99.99
2022-12-19T05:17:42.430Z,99.99
2022-12-19T05:18:42.427Z,99.99
2022-12-19T05:19:42.416Z,99.99
2022-12-19T05:20:42.381Z,99.99
2022-12-19T05:21:42.390Z,99.99
2022-12-19T05:22:42.361Z,99.99
2022-12-19T05:23:42.338Z,99.99
2022-12-19T05:24:42.373Z,99.99
2022-12-19T05:25:42.333Z,99.99
2022-12-19T05:26:42.307Z,99.99
2022-12-19T05:27:42.288Z,99.99
2022-12-19T05:28:42.286Z,99.99
2022-12-19T05:29:42.298Z,99.99
2022-12-19T05:30:42.273Z,99.99
2022-12-19T05:31:42.279Z,99.99
2022-12-19T05:32:42.226Z,99.99
2022-12-19T05:33:42.258Z,99.99
2022-12-19T05:34:42.215Z,99.99
2022-12-19T05:35:42.197Z,99.99
2022-12-19T05:36:42.207Z,99.99
2022-12-19T05:37:42.163Z,99.99
2022-12-19T05:38:42.212Z,99.99
2022-12-19T05:39:42.140Z,99.99
2022-12-19T05:40:42.149Z,99.99
2022-12-19T05:41:42.628Z,99.99
2022-12-19T05:42:42.125Z,99.99
2022-12-19T05:43:42.101Z,99.99
2022-12-19T05:44:42.083Z,99.99
2022-12-19T05:45:42.083Z,99.99
2022-12-19T05:46:42.129Z,99.99
2022-12-19T05:47:42.044Z,99.99
2022-12-19T05:48:42.043Z,99.99
2022-12-19T05:49:42.002Z,99.99
2022-12-19T05:50:41.996Z,99.99
2022-12-19T05:51:41.973Z,99.99
2022-12-19T05:52:41.968Z,99.99
2022-12-19T05:53:41.977Z,99.99
2022-12-19T05:54:41.937Z,99.99
2022-12-19T05:55:41.933Z,99.99
2022-12-19T05:56:41.930Z,99.99
2022-12-19T05:57:41.902Z,99.99
2022-12-19T05:58:41.923Z,99.99
2022-12-19T05:59:41.876Z,99.99
2022-12-19T06:00:41.929Z,99.99
2022-12-19T06:01:41.961Z,99.99
2022-12-19T06:02:41.906Z,99.99
2022-12-19T06:03:41.877Z,99.99
2022-12-19T06:04:41.823Z,99.99
2022-12-19T06:05:41.806Z,99.99
2022-12-19T06:06:41.807Z,99.99
2022-12-19T06:07:41.769Z,99.99
2022-12-19T06:08:41.776Z,99.99
2022-12-19T06:09:41.744Z,99.99
2022-12-19T06:10:41.752Z,99.99
2022-12-19T06:11:41.713Z,99.99
2022-12-19T06:12:41.714Z,99.99
2022-12-19T06:13:41.723Z,99.99
2022-12-19T06:14:41.686Z,99.99
2022-12-19T06:15:41.698Z,99.99
2022-12-19T06:16:41.712Z,99.99
2022-12-19T06:17:41.643Z,99.99
2022-12-19T06:18:44.497Z,99.99
2022-12-19T06:19:41.612Z,99.99
2022-12-19T06:20:41.626Z,99.99
2022-12-19T06:21:47.940Z,99.99
2022-12-19T06:22:41.600Z,99.99
2022-12-19T06:23:41.581Z,99.99
2022-12-19T06:24:41.583Z,99.99
2022-12-19T06:25:41.534Z,99.99
2022-12-19T06:26:41.532Z,99.99
2022-12-19T06:27:41.510Z,99.99
2022-12-19T06:28:41.538Z,99.99
2022-12-19T06:29:41.503Z,99.99
2022-12-19T06:30:41.470Z,99.99
2022-12-19T06:31:41.576Z,99.99
2022-12-19T06:32:41.451Z,99.99
2022-12-19T06:33:41.460Z,99.99
2022-12-19T06:35:41.419Z,99.99
2022-12-19T06:36:41.418Z,99.99
2022-12-19T06:37:41.384Z,99.99
2022-12-19T06:38:41.368Z,99.99
2022-12-19T06:39:41.389Z,99.99
2022-12-19T06:40:41.369Z,99.99
2022-12-19T06:41:41.370Z,99.99
2022-12-19T06:42:41.313Z,99.99
2022-12-19T06:43:41.296Z,99.99
2022-12-19T06:44:41.308Z,99.99
2022-12-19T06:45:41.311Z,99.99
2022-12-19T06:46:41.303Z,99.99
2022-12-19T06:47:41.254Z,99.99
2022-12-19T06:48:41.239Z,99.99
2022-12-19T06:49:41.225Z,99.99
2022-12-19T06:50:41.261Z,99.99
2022-12-19T06:51:41.562Z,99.99
2022-12-19T06:52:41.189Z,99.99
2022-12-19T06:53:41.175Z,99.99
2022-12-19T06:54:41.153Z,99.99
2022-12-19T06:55:41.090Z,99.99
2022-12-19T06:56:41.082Z,99.99
2022-12-19T06:57:41.060Z,99.99
2022-12-19T06:58:41.070Z,99.99
2022-12-19T06:59:41.065Z,99.99
2022-12-19T07:00:41.078Z,99.99
2022-12-19T07:01:41.215Z,99.99
2022-12-19T07:02:41.122Z,99.99
2022-12-19T07:03:40.996Z,99.99
2022-12-19T07:04:40.998Z,99.99
2022-12-19T07:05:41.003Z,99.99
2022-12-19T07:06:45.963Z,99.99
2022-12-19T07:07:40.945Z,99.99
2022-12-19T07:08:40.925Z,99.99
2022-12-19T07:09:40.961Z,99.99
2022-12-19T07:10:40.967Z,99.99
2022-12-19T07:11:40.890Z,99.99
2022-12-19T07:12:40.921Z,99.99
2022-12-19T07:13:40.858Z,99.99
2022-12-19T07:14:40.849Z,99.99
2022-12-19T07:15:40.829Z,99.99
2022-12-19T07:16:40.933Z,99.99
2022-12-19T07:17:40.826Z,99.99
2022-12-19T07:18:40.795Z,99.99
2022-12-19T07:19:40.796Z,99.99
2022-12-19T07:20:45.060Z,99.99
2022-12-19T07:21:40.754Z,99.99
2022-12-19T07:22:40.753Z,99.99
2022-12-19T07:23:40.729Z,99.99
2022-12-19T07:24:40.739Z,99.99
2022-12-19T07:25:40.703Z,99.99
2022-12-19T07:26:40.698Z,99.99
2022-12-19T07:27:40.711Z,99.99
2022-12-19T07:28:40.675Z,99.99
2022-12-19T07:29:40.648Z,99.99
2022-12-19T07:30:40.664Z,99.99
2022-12-19T07:31:40.724Z,99.99
2022-12-19T07:32:40.640Z,99.99
2022-12-19T07:33:40.607Z,99.99
2022-12-19T07:34:40.590Z,99.99
2022-12-19T07:35:40.572Z,99.99
2022-12-19T07:36:40.581Z,99.99
2022-12-19T07:37:40.590Z,99.99
2022-12-19T07:38:40.541Z,99.99
2022-12-19T07:39:40.522Z,99.99
2022-12-19T07:40:40.524Z,99.99
2022-12-19T07:41:40.504Z,99.99
2022-12-19T07:42:40.521Z,99.99
2022-12-19T07:43:40.464Z,99.99
2022-12-19T07:44:40.484Z,99.99
2022-12-19T07:45:40.491Z,99.99
2022-12-19T07:46:40.433Z,99.99
2022-12-19T07:47:40.420Z,99.99
2022-12-19T07:48:40.414Z,99.99
2022-12-19T07:49:40.452Z,99.99
2022-12-19T07:50:40.390Z,99.99
2022-12-19T07:51:40.393Z,99.99
2022-12-19T07:52:40.355Z,99.99
2022-12-19T07:53:40.340Z,99.99
2022-12-19T07:54:40.355Z,99.99
2022-12-19T07:55:40.327Z,99.99
2022-12-19T07:56:40.305Z,99.99
2022-12-19T07:57:40.290Z,99.99
2022-12-19T07:58:40.281Z,99.99
2022-12-19T07:59:40.274Z,99.99
2022-12-19T08:00:40.314Z,99.99
2022-12-19T08:01:40.347Z,99.99
2022-12-19T08:02:40.296Z,99.99
2022-12-19T08:03:40.224Z,99.99
2022-12-19T08:04:40.199Z,99.99
2022-12-19T08:05:40.202Z,99.99
2022-12-19T08:06:41.589Z,99.99
2022-12-19T08:07:40.165Z,99.99
2022-12-19T08:08:40.186Z,99.99
2022-12-19T08:09:40.178Z,99.99
2022-12-19T08:10:40.131Z,99.99
2022-12-19T08:11:40.114Z,99.99
2022-12-19T08:12:40.097Z,99.99
2022-12-19T08:13:46.199Z,99.99
2022-12-19T08:14:40.090Z,99.99
2022-12-19T08:15:40.058Z,99.99
2022-12-19T08:17:10.926Z,99.99
2022-12-19T08:17:40.096Z,99.99
2022-12-19T08:18:40.044Z,99.99
2022-12-19T08:19:40.015Z,99.99
2022-12-19T08:20:40.014Z,99.99
2022-12-19T08:21:39.987Z,99.99
2022-12-19T08:22:39.971Z,99.99
2022-12-19T08:23:40.040Z,99.99
2022-12-19T08:24:39.965Z,99.99
2022-12-19T08:25:39.945Z,99.99
2022-12-19T08:26:44.501Z,99.99
2022-12-19T08:27:39.916Z,99.99
2022-12-19T08:28:39.926Z,99.99
2022-12-19T08:29:39.918Z,99.99
2022-12-19T08:30:39.916Z,99.99
2022-12-19T08:31:39.878Z,99.99
2022-12-19T08:32:39.850Z,99.99
2022-12-19T08:33:39.854Z,99.99
2022-12-19T08:34:39.824Z,99.99
2022-12-19T08:35:39.821Z,99.99
2022-12-19T08:36:39.795Z,99.99
2022-12-19T08:37:39.830Z,99.99
2022-12-19T08:38:39.785Z,99.99
2022-12-19T08:39:39.770Z,99.99
2022-12-19T08:40:44.332Z,99.99
2022-12-19T08:41:39.727Z,99.99
2022-12-19T08:42:39.755Z,99.99
2022-12-19T08:43:39.731Z,99.99
2022-12-19T08:44:39.683Z,99.99
2022-12-19T08:45:39.760Z,99.99
2022-12-19T08:46:42.465Z,99.99
2022-12-19T08:47:39.679Z,99.99
2022-12-19T08:48:39.650Z,99.99
2022-12-19T08:49:39.634Z,99.99
2022-12-19T08:50:39.645Z,99.99
2022-12-19T08:51:39.588Z,99.99
2022-12-19T08:52:39.583Z,99.99
2022-12-19T08:53:39.583Z,99.99
2022-12-19T08:54:39.560Z,99.99
2022-12-19T08:55:39.566Z,99.99
2022-12-19T08:56:42.225Z,99.99
2022-12-19T08:57:39.547Z,99.99
2022-12-19T08:58:39.515Z,99.99
2022-12-19T08:59:39.493Z,99.99
2022-12-19T09:00:39.512Z,99.99
2022-12-19T09:01:39.573Z,99.99
2022-12-19T09:02:39.752Z,99.99
2022-12-19T09:03:51.651Z,99.99
2022-12-19T09:06:01.518Z,99.99
2022-12-19T09:06:17.838Z,99.99
2022-12-19T09:06:39.448Z,99.99
2022-12-19T09:07:39.383Z,99.99
2022-12-19T09:08:39.446Z,99.99
2022-12-19T09:09:39.361Z,99.99
2022-12-19T09:10:39.357Z,99.99
2022-12-19T09:11:47.273Z,99.99
2022-12-19T09:12:39.319Z,99.99
2022-12-19T09:13:39.340Z,99.99
2022-12-19T09:14:39.284Z,99.99
2022-12-19T09:15:39.366Z,99.99
2022-12-19T09:16:39.358Z,99.99
2022-12-19T09:17:39.256Z,99.99
2022-12-19T09:18:42.594Z,99.99
2022-12-19T09:19:39.234Z,99.99
2022-12-19T09:20:39.240Z,99.99
2022-12-19T09:21:39.206Z,99.99
2022-12-19T09:22:39.187Z,99.99
2022-12-19T09:23:39.184Z,99.99
2022-12-19T09:24:39.168Z,99.99
2022-12-19T09:25:39.192Z,99.99
2022-12-19T09:26:39.171Z,99.99
2022-12-19T09:28:09.268Z,99.99
2022-12-19T09:28:39.125Z,99.99
2022-12-19T09:29:39.138Z,99.99
2022-12-19T09:30:39.145Z,99.99
2022-12-19T09:31:39.091Z,99.99
2022-12-19T09:32:39.060Z,99.99
2022-12-19T09:33:43.419Z,99.99
2022-12-19T09:34:39.293Z,99.99
2022-12-19T09:35:39.035Z,99.99
2022-12-19T09:36:39.026Z,99.99
2022-12-19T09:37:39.015Z,99.99
2022-12-19T09:38:38.985Z,99.99
2022-12-19T09:39:39.099Z,99.99
2022-12-19T09:40:38.947Z,99.99
2022-12-19T09:41:38.948Z,99.99
2022-12-19T09:42:40.804Z,99.99
2022-12-19T09:43:41.398Z,99.99
2022-12-19T09:44:38.920Z,99.99
2022-12-19T09:45:38.900Z,99.99
2022-12-19T09:46:38.929Z,99.99
2022-12-19T09:47:38.909Z,99.99
2022-12-19T09:48:38.883Z,99.99
2022-12-19T09:49:39.908Z,99.99
2022-12-19T09:50:38.855Z,99.99
2022-12-19T09:51:38.819Z,99.99
2022-12-19T09:52:38.808Z,99.99
2022-12-19T09:53:38.787Z,99.99
2022-12-19T09:54:38.783Z,99.99
2022-12-19T09:55:38.858Z,99.99
2022-12-19T09:56:45.587Z,99.99
2022-12-19T09:57:38.801Z,99.99
2022-12-19T09:58:38.734Z,99.99
2022-12-19T09:59:42.843Z,99.99
2022-12-19T10:00:38.713Z,99.99
2022-12-19T10:01:38.773Z,99.99
2022-12-19T10:02:38.891Z,99.99
2022-12-19T10:03:40.363Z,99.99
2022-12-19T10:04:38.648Z,99.99
2022-12-19T10:07:04.498Z,99.99
2022-12-19T10:07:54.695Z,99.99
2022-12-19T10:08:10.503Z,99.99
2022-12-19T10:08:54.960Z,99.99
2022-12-19T10:11:42.867Z,99.99
2022-12-19T10:12:53.140Z,99.99
2022-12-19T10:13:00.074Z,99.99
2022-12-19T10:13:58.886Z,99.99
2022-12-19T10:14:58.855Z,99.99
2022-12-19T10:16:00.666Z,99.99
2022-12-19T10:17:23.224Z,99.99
2022-12-19T10:17:58.816Z,99.99
2022-12-19T10:18:58.803Z,99.99
2022-12-19T10:19:58.778Z,99.99
2022-12-19T10:20:58.794Z,99.99
2022-12-19T10:22:17.747Z,99.99
2022-12-19T10:22:58.756Z,99.99
2022-12-19T10:23:58.730Z,99.99
2022-12-19T10:25:08.626Z,99.99
2022-12-19T10:25:58.740Z,99.99
2022-12-19T10:26:58.695Z,99.99
2022-12-19T10:28:00.484Z,99.99
2022-12-19T10:28:58.705Z,99.99
2022-12-19T10:29:58.656Z,99.99
2022-12-19T10:31:02.655Z,99.99
2022-12-19T10:31:58.696Z,99.99
2022-12-19T10:32:58.616Z,99.99
2022-12-19T10:33:58.613Z,99.99
2022-12-19T10:34:58.611Z,99.99
2022-12-19T10:36:02.067Z,99.99
2022-12-19T10:37:27.220Z,99.99
2022-12-19T10:37:58.569Z,99.99
2022-12-19T10:38:58.550Z,99.99
2022-12-19T10:39:58.514Z,99.99
2022-12-19T10:40:58.534Z,99.99
2022-12-19T10:41:58.540Z,99.99
2022-12-19T10:44:15.085Z,99.99
2022-12-19T10:45:16.040Z,99.99
2022-12-19T10:46:16.130Z,99.99
2022-12-19T10:47:16.050Z,99.61
2022-12-19T10:48:16.059Z,98.78
2022-12-19T10:49:16.003Z,99.14
2022-12-19T10:50:16.009Z,99.99
2022-12-19T10:51:16.015Z,99.99
2022-12-19T10:52:15.959Z,99.99
2022-12-19T10:53:15.983Z,99.99
2022-12-19T10:54:15.962Z,99.99
2022-12-19T10:55:15.970Z,99.14
2022-12-19T10:56:15.917Z,98.10
2022-12-19T10:57:15.929Z,98.83
2022-12-19T10:58:15.925Z,99.14
2022-12-19T10:59:15.885Z,98.97
2022-12-19T11:00:15.868Z,98.87
2022-12-19T11:01:15.874Z,99.18
2022-12-19T11:02:15.911Z,99.95
2022-12-19T11:03:18.969Z,99.99
2022-12-19T11:04:15.808Z,99.74
2022-12-19T11:05:15.845Z,99.99
2022-12-19T11:06:15.826Z,99.99
2022-12-19T11:07:15.829Z,99.99
2022-12-19T11:08:15.746Z,99.99
2022-12-19T11:09:15.742Z,99.64
2022-12-19T11:11:00.503Z,99.23
2022-12-19T11:16:26.712Z,99.99
2022-12-19T11:29:31.227Z,99.99
2022-12-19T11:32:42.653Z,99.99
2022-12-19T11:33:39.791Z,99.99
2022-12-19T11:34:39.701Z,99.99
2022-12-19T11:35:39.695Z,99.99
2022-12-19T11:36:39.682Z,99.99
2022-12-19T11:37:39.677Z,99.99
2022-12-19T11:38:39.667Z,99.99
2022-12-19T11:39:39.641Z,99.99
2022-12-19T11:40:44.844Z,99.99
2022-12-19T11:41:39.626Z,99.99
2022-12-19T11:42:39.620Z,99.99
2022-12-19T11:43:44.929Z,99.99
2022-12-19T11:44:39.591Z,99.99
2022-12-19T11:45:39.577Z,99.99
2022-12-19T11:46:39.556Z,99.99
2022-12-19T11:47:39.586Z,99.99
2022-12-19T11:48:39.514Z,99.99
2022-12-19T11:49:39.513Z,99.99
2022-12-19T11:50:39.503Z,99.99
2022-12-19T11:51:39.472Z,99.99
2022-12-19T11:53:03.941Z,99.99
2022-12-19T11:53:39.476Z,99.99
2022-12-19T11:54:39.452Z,99.99
2022-12-19T11:55:39.468Z,99.99
2022-12-19T11:56:39.440Z,99.99
2022-12-19T11:57:39.414Z,99.99
2022-12-19T11:58:39.401Z,99.99
2022-12-19T11:59:39.384Z,99.99
2022-12-19T12:00:39.366Z,99.99
2022-12-19T12:01:39.428Z,99.99
2022-12-19T12:02:39.344Z,99.99
2022-12-19T12:03:39.428Z,99.99
2022-12-19T12:04:39.353Z,99.99
2022-12-19T12:05:39.307Z,99.99
2022-12-19T12:06:45.347Z,99.99
2022-12-19T12:07:58.706Z,99.99
2022-12-19T12:18:37.594Z,99.99
2022-12-19T12:35:30.367Z,99.99
2022-12-19T12:39:03.579Z,99.99
2022-12-19T12:40:03.503Z,99.99
2022-12-19T12:41:03.496Z,99.99
2022-12-19T12:42:03.468Z,99.99
2022-12-19T12:43:03.476Z,99.99
2022-12-19T12:44:03.480Z,99.99
2022-12-19T12:45:03.432Z,99.99
2022-12-19T12:46:03.593Z,99.99
2022-12-19T12:47:03.431Z,99.99
2022-12-19T12:48:03.410Z,99.99
2022-12-19T12:49:03.401Z,99.99
2022-12-19T12:50:03.391Z,99.99
2022-12-19T12:51:03.371Z,99.99
2022-12-19T12:52:03.335Z,99.99
2022-12-19T12:53:03.326Z,99.99
2022-12-19T12:54:03.331Z,99.99
2022-12-19T12:55:03.317Z,99.99
2022-12-19T12:56:03.287Z,99.99
2022-12-19T12:57:03.268Z,99.99
2022-12-19T12:58:03.266Z,99.99
2022-12-19T12:59:03.340Z,99.99
2022-12-19T13:00:03.249Z,99.99
2022-12-19T13:01:03.276Z,99.99
2022-12-19T13:02:03.404Z,99.99
2022-12-19T13:03:03.339Z,99.99
2022-12-19T13:04:03.175Z,99.99
2022-12-19T13:05:03.225Z,99.99
2022-12-19T13:06:03.172Z,99.99
2022-12-19T13:07:03.142Z,99.99
2022-12-19T13:08:03.136Z,99.99
2022-12-19T13:09:03.119Z,99.99
2022-12-19T13:10:03.116Z,99.99
2022-12-19T13:11:03.108Z,99.99
2022-12-19T13:12:03.083Z,99.99
2022-12-19T13:13:03.073Z,99.99
2022-12-19T13:14:03.054Z,99.99
2022-12-19T13:15:03.080Z,99.99
2022-12-19T13:16:03.024Z,99.99
2022-12-19T13:17:03.091Z,99.99
2022-12-19T13:18:02.997Z,99.99
2022-12-19T13:19:02.998Z,99.99
2022-12-19T13:20:03.024Z,99.99
2022-12-19T13:21:02.964Z,99.99
2022-12-19T13:22:02.947Z,99.99
2022-12-19T13:23:02.957Z,99.99
2022-12-19T13:24:02.924Z,99.99
2022-12-19T13:25:02.938Z,99.99
2022-12-19T13:26:02.946Z,99.99
2022-12-19T13:27:02.890Z,99.99
2022-12-19T13:28:02.883Z,99.99
2022-12-19T13:29:02.862Z,99.99
2022-12-19T13:30:02.909Z,99.99
2022-12-19T13:31:21.001Z,99.99
2022-12-19T13:32:02.886Z,99.99
2022-12-19T13:33:02.810Z,99.99
2022-12-19T13:34:02.796Z,99.99
2022-12-19T13:35:51.765Z,99.99
2022-12-19T13:40:00.504Z,99.99
2022-12-19T13:40:12.611Z,99.99
2022-12-19T13:40:41.161Z,99.99
2022-12-19T13:41:41.153Z,99.99
2022-12-19T13:42:41.132Z,99.99
2022-12-19T13:43:41.132Z,99.99
2022-12-19T13:44:41.112Z,99.99
2022-12-19T13:45:41.227Z,99.99
2022-12-19T13:46:41.134Z,99.99